Edmundston, Canada
Current Conditions -  °F | °C
As of 11:53 AM on Friday 28 Nov 2014 (Local Time) from KFVE Reporting Station
Broken Clouds Broken Clouds  
Wind Chill:   Ceiling: 9000
Heat Index: 14°   Visibility: 10mi
Dew Point:   Wind: 8mph
Humidity: 77%   Direction: 350°N
Pressure: 29.97"   Gusts: NA
Location:  47.37°N, 68.33°W
Report Text: KFVE 281553Z AUTO 35007KT 10SM BKN090 BKN110 M10/M13 A2997 RMK AO2 SLP167 T11001133
Loading
Personal Weather Stations






























Interactive Weather Map New forecast layout! Learn more

10-Day Weather Forecast

Advertisements
Track Severe Weather on mobile